Time,TemperatureF,DewpointF,PressureIn,WindDirection,WindDirectionDegrees,WindSpeedMPH,WindSpeedGustMPH,Humidity,HourlyPrecipIn,Conditions,Clouds,dailyrainin,SoftwareType,DateUTC
2013-10-30 00:01:00,37.9,35.8,30.28,WNW,289,0.0,0.0,92,0.00,,,0.00,Wunderground v.1.15,2013-10-30 04:01:00,
2013-10-30 00:04:00,37.9,35.8,30.28,WNW,290,0.0,0.0,92,0.00,,,0.00,Wunderground v.1.15,2013-10-30 04:04:00,
2013-10-30 00:05:00,37.9,35.8,30.28,WNW,290,0.0,0.0,92,0.00,,,0.00,Wunderground v.1.15,2013-10-30 04:05:00,
2013-10-30 00:06:00,37.9,35.8,30.28,WNW,290,0.0,0.0,92,0.00,,,0.00,Wunderground v.1.15,2013-10-30 04:06:00,
2013-10-30 00:11:00,37.8,35.7,30.29,WNW,289,0.0,0.0,92,0.00,,,0.00,Wunderground v.1.15,2013-10-30 04:11:00,
2013-10-30 00:14:00,37.8,35.7,30.28,WNW,290,0.0,0.0,92,0.00,,,0.00,Wunderground v.1.15,2013-10-30 04:14:00,
2013-10-30 00:20:00,37.8,35.7,30.28,WNW,289,0.0,0.0,92,0.00,,,0.00,Wunderground v.1.15,2013-10-30 04:20:00,
2013-10-30 00:25:00,37.8,35.7,30.28,WNW,290,0.0,0.0,92,0.00,,,0.00,Wunderground v.1.15,2013-10-30 04:25:00,
2013-10-30 00:30:00,37.7,35.6,30.27,WNW,290,0.0,0.0,92,0.00,,,0.00,Wunderground v.1.15,2013-10-30 04:30:00,
2013-10-30 00:35:00,37.7,35.6,30.27,WNW,289,0.0,0.0,92,0.00,,,0.00,Wunderground v.1.15,2013-10-30 04:35:00,
2013-10-30 00:41:00,37.7,35.6,30.27,WNW,290,0.0,0.0,92,0.00,,,0.00,Wunderground v.1.15,2013-10-30 04:41:00,
2013-10-30 00:46:00,37.7,35.6,30.26,WNW,290,0.0,0.0,92,0.00,,,0.00,Wunderground v.1.15,2013-10-30 04:46:00,
2013-10-30 00:51:00,37.7,35.9,30.26,WNW,290,0.0,0.0,93,0.00,,,0.00,Wunderground v.1.15,2013-10-30 04:51:00,
2013-10-30 00:56:00,37.8,36.0,30.25,WNW,290,0.0,0.0,93,0.00,,,0.00,Wunderground v.1.15,2013-10-30 04:56:00,
2013-10-30 01:01:00,37.8,36.0,30.25,WNW,289,0.0,0.0,93,0.00,,,0.00,Wunderground v.1.15,2013-10-30 05:01:00,
2013-10-30 01:06:00,37.7,35.9,30.25,WNW,290,0.0,0.0,93,0.00,,,0.00,Wunderground v.1.15,2013-10-30 05:06:00,
2013-10-30 01:11:00,37.7,35.9,30.25,WNW,289,0.0,0.0,93,0.00,,,0.00,Wunderground v.1.15,2013-10-30 05:11:00,
2013-10-30 01:17:00,37.7,35.9,30.25,WNW,290,0.0,0.0,93,0.00,,,0.00,Wunderground v.1.15,2013-10-30 05:17:00,
2013-10-30 01:22:00,37.6,35.8,30.25,WNW,290,0.0,0.0,93,0.00,,,0.00,Wunderground v.1.15,2013-10-30 05:22:00,
2013-10-30 01:28:00,37.6,35.8,30.25,WNW,289,0.0,0.0,93,0.00,,,0.00,Wunderground v.1.15,2013-10-30 05:28:00,
2013-10-30 01:33:00,37.6,35.8,30.25,WNW,290,0.0,0.0,93,0.00,,,0.00,Wunderground v.1.15,2013-10-30 05:33:00,
2013-10-30 01:39:00,37.6,35.8,30.25,WNW,289,0.0,0.0,93,0.00,,,0.00,Wunderground v.1.15,2013-10-30 05:39:00,
2013-10-30 01:44:00,37.6,35.8,30.24,WNW,289,0.0,0.0,93,0.00,,,0.00,Wunderground v.1.15,2013-10-30 05:44:00,
2013-10-30 01:49:00,37.6,35.8,30.24,WNW,290,0.0,0.0,93,0.00,,,0.00,Wunderground v.1.15,2013-10-30 05:49:00,
2013-10-30 01:55:00,37.6,35.5,30.24,WNW,290,0.0,0.0,92,0.00,,,0.00,Wunderground v.1.15,2013-10-30 05:55:00,
2013-10-30 02:01:00,37.5,35.4,30.24,WNW,289,0.0,0.0,92,0.00,,,0.00,Wunderground v.1.15,2013-10-30 06:01:00,
2013-10-30 02:06:00,37.4,35.3,30.24,WNW,289,0.0,0.0,92,0.00,,,0.00,Wunderground v.1.15,2013-10-30 06:06:00,
2013-10-30 02:12:00,37.2,35.1,30.24,WNW,290,0.0,0.0,92,0.00,,,0.00,Wunderground v.1.15,2013-10-30 06:12:00,
2013-10-30 02:17:00,37.2,35.1,30.24,WNW,290,0.0,0.0,92,0.00,,,0.00,Wunderground v.1.15,2013-10-30 06:17:00,
2013-10-30 02:22:00,37.2,35.1,30.24,WNW,289,0.0,0.0,92,0.00,,,0.00,Wunderground v.1.15,2013-10-30 06:22:00,
2013-10-30 02:27:00,37.1,35.0,30.24,WNW,290,0.0,0.0,92,0.00,,,0.00,Wunderground v.1.15,2013-10-30 06:27:00,
2013-10-30 02:32:00,36.9,34.8,30.25,WNW,290,0.0,0.0,92,0.00,,,0.00,Wunderground v.1.15,2013-10-30 06:32:00,
2013-10-30 02:37:00,36.9,34.8,30.25,WNW,290,0.0,0.0,92,0.00,,,0.00,Wunderground v.1.15,2013-10-30 06:37:00,
2013-10-30 02:43:00,36.8,34.7,30.25,WNW,290,0.0,0.0,92,0.00,,,0.00,Wunderground v.1.15,2013-10-30 06:43:00,
2013-10-30 02:48:00,36.8,35.0,30.25,WNW,290,0.0,0.0,93,0.00,,,0.00,Wunderground v.1.15,2013-10-30 06:48:00,
2013-10-30 02:53:00,36.7,34.6,30.25,WNW,290,0.0,0.0,92,0.00,,,0.00,Wunderground v.1.15,2013-10-30 06:53:00,
2013-10-30 02:58:00,36.5,34.4,30.25,WNW,289,0.0,0.0,92,0.00,,,0.00,Wunderground v.1.15,2013-10-30 06:58:00,
2013-10-30 03:03:00,36.4,34.3,30.24,WNW,290,0.0,0.0,92,0.00,,,0.00,Wunderground v.1.15,2013-10-30 07:03:00,
2013-10-30 03:08:00,36.3,34.5,30.24,WNW,290,0.0,0.0,93,0.00,,,0.00,Wunderground v.1.15,2013-10-30 07:08:00,
2013-10-30 03:13:00,36.1,34.3,30.24,WNW,290,0.0,0.0,93,0.00,,,0.00,Wunderground v.1.15,2013-10-30 07:13:00,
2013-10-30 03:18:00,35.9,34.1,30.24,WNW,290,0.0,0.0,93,0.00,,,0.00,Wunderground v.1.15,2013-10-30 07:18:00,
2013-10-30 03:23:00,35.8,34.0,30.24,WNW,289,0.0,0.0,93,0.00,,,0.00,Wunderground v.1.15,2013-10-30 07:23:00,
2013-10-30 03:28:00,35.8,34.0,30.24,WNW,290,0.0,0.0,93,0.00,,,0.00,Wunderground v.1.15,2013-10-30 07:28:00,
2013-10-30 03:34:00,35.8,34.2,30.23,WNW,290,0.0,0.0,94,0.00,,,0.00,Wunderground v.1.15,2013-10-30 07:34:00,
2013-10-30 03:39:00,35.8,34.2,30.23,WNW,289,0.0,0.0,94,0.00,,,0.00,Wunderground v.1.15,2013-10-30 07:39:00,
2013-10-30 03:44:00,35.8,34.2,30.23,WNW,289,0.0,0.0,94,0.00,,,0.00,Wunderground v.1.15,2013-10-30 07:44:00,
2013-10-30 03:49:00,35.8,34.2,30.23,WNW,290,0.0,0.0,94,0.00,,,0.00,Wunderground v.1.15,2013-10-30 07:49:00,
2013-10-30 03:54:00,35.8,34.2,30.23,WNW,290,0.0,0.0,94,0.00,,,0.00,Wunderground v.1.15,2013-10-30 07:54:00,
2013-10-30 03:59:00,35.7,34.1,30.23,WNW,290,0.0,0.0,94,0.00,,,0.00,Wunderground v.1.15,2013-10-30 07:59:00,
2013-10-30 04:04:00,35.7,34.1,30.23,WNW,290,0.0,0.0,94,0.00,,,0.00,Wunderground v.1.15,2013-10-30 08:04:00,
2013-10-30 04:09:00,35.8,34.2,30.23,WNW,290,0.0,0.0,94,0.00,,,0.00,Wunderground v.1.15,2013-10-30 08:09:00,
2013-10-30 04:14:00,35.7,34.1,30.23,WNW,290,0.0,0.0,94,0.00,,,0.00,Wunderground v.1.15,2013-10-30 08:14:00,
2013-10-30 04:19:00,35.6,34.0,30.22,WNW,290,0.0,0.0,94,0.00,,,0.00,Wunderground v.1.15,2013-10-30 08:19:00,
2013-10-30 04:24:00,35.6,34.0,30.22,WNW,290,0.0,0.0,94,0.00,,,0.00,Wunderground v.1.15,2013-10-30 08:24:00,
2013-10-30 04:29:00,35.5,33.9,30.22,WNW,290,0.0,0.0,94,0.00,,,0.00,Wunderground v.1.15,2013-10-30 08:29:00,
2013-10-30 04:35:00,35.4,33.8,30.22,WNW,289,0.0,0.0,94,0.00,,,0.00,Wunderground v.1.15,2013-10-30 08:35:00,
2013-10-30 04:40:00,35.3,33.7,30.22,WNW,290,0.0,0.0,94,0.00,,,0.00,Wunderground v.1.15,2013-10-30 08:40:00,
2013-10-30 04:45:00,35.3,34.0,30.22,WNW,289,0.0,0.0,95,0.00,,,0.00,Wunderground v.1.15,2013-10-30 08:45:00,
2013-10-30 04:50:00,35.2,33.9,30.21,WNW,290,0.0,0.0,95,0.00,,,0.00,Wunderground v.1.15,2013-10-30 08:50:00,
2013-10-30 04:55:00,35.0,33.7,30.22,WNW,290,0.0,0.0,95,0.00,,,0.00,Wunderground v.1.15,2013-10-30 08:55:00,
2013-10-30 05:00:00,34.8,33.5,30.22,WNW,289,0.0,0.0,95,0.00,,,0.00,Wunderground v.1.15,2013-10-30 09:00:00,
2013-10-30 05:05:00,34.8,33.5,30.22,WNW,290,0.0,0.0,95,0.00,,,0.00,Wunderground v.1.15,2013-10-30 09:05:00,
2013-10-30 05:10:00,34.7,33.4,30.22,WNW,290,0.0,0.0,95,0.00,,,0.00,Wunderground v.1.15,2013-10-30 09:10:00,
2013-10-30 05:15:00,34.5,33.2,30.22,WNW,290,0.0,0.0,95,0.00,,,0.00,Wunderground v.1.15,2013-10-30 09:15:00,
2013-10-30 05:20:00,34.3,33.0,30.23,WNW,290,0.0,0.0,95,0.00,,,0.00,Wunderground v.1.15,2013-10-30 09:20:00,
2013-10-30 05:25:00,34.1,32.8,30.23,WNW,290,0.0,0.0,95,0.00,,,0.00,Wunderground v.1.15,2013-10-30 09:25:00,
2013-10-30 05:31:00,34.0,32.7,30.23,WNW,289,0.0,0.0,95,0.00,,,0.00,Wunderground v.1.15,2013-10-30 09:31:00,
2013-10-30 05:36:00,33.8,32.5,30.22,WNW,290,0.0,0.0,95,0.00,,,0.00,Wunderground v.1.15,2013-10-30 09:36:00,
2013-10-30 05:41:00,33.6,32.3,30.22,WNW,290,0.0,0.0,95,0.00,,,0.00,Wunderground v.1.15,2013-10-30 09:41:00,
2013-10-30 05:46:00,33.4,32.1,30.22,WNW,290,0.0,0.0,95,0.00,,,0.00,Wunderground v.1.15,2013-10-30 09:46:00,
2013-10-30 05:51:00,33.3,32.0,30.22,WNW,290,0.0,0.0,95,0.00,,,0.00,Wunderground v.1.15,2013-10-30 09:51:00,
2013-10-30 05:56:00,33.2,31.9,30.22,WNW,290,0.0,0.0,95,0.00,,,0.00,Wunderground v.1.15,2013-10-30 09:56:00,
2013-10-30 06:01:00,33.2,32.2,30.22,WNW,290,0.0,0.0,96,0.00,,,0.00,Wunderground v.1.15,2013-10-30 10:01:00,
2013-10-30 06:06:00,33.1,32.1,30.22,WNW,289,0.0,0.0,96,0.00,,,0.00,Wunderground v.1.15,2013-10-30 10:06:00,
2013-10-30 06:11:00,32.8,31.8,30.22,WNW,290,0.0,0.0,96,0.00,,,0.00,Wunderground v.1.15,2013-10-30 10:11:00,
2013-10-30 06:16:00,32.7,31.4,30.22,WNW,290,0.0,0.0,95,0.00,,,0.00,Wunderground v.1.15,2013-10-30 10:16:00,
2013-10-30 06:21:00,32.4,31.1,30.22,WNW,289,0.0,0.0,95,0.00,,,0.00,Wunderground v.1.15,2013-10-30 10:21:00,
2013-10-30 06:27:00,32.3,31.3,30.22,WNW,290,0.0,0.0,96,0.00,,,0.00,Wunderground v.1.15,2013-10-30 10:27:00,
2013-10-30 06:33:00,32.0,31.0,30.22,WNW,290,0.0,0.0,96,0.00,,,0.00,Wunderground v.1.15,2013-10-30 10:33:00,
2013-10-30 06:38:00,31.9,30.9,30.22,WNW,290,0.0,0.0,96,0.00,,,0.00,Wunderground v.1.15,2013-10-30 10:38:00,
2013-10-30 06:43:00,31.8,30.8,30.22,WNW,289,0.0,0.0,96,0.00,,,0.00,Wunderground v.1.15,2013-10-30 10:43:00,
2013-10-30 06:48:00,31.8,30.8,30.22,WNW,290,0.0,0.0,96,0.00,,,0.00,Wunderground v.1.15,2013-10-30 10:48:00,
2013-10-30 06:53:00,31.8,30.8,30.22,WNW,290,0.0,0.0,96,0.00,,,0.00,Wunderground v.1.15,2013-10-30 10:53:00,
2013-10-30 06:58:00,31.6,30.6,30.21,WNW,289,0.0,0.0,96,0.00,,,0.00,Wunderground v.1.15,2013-10-30 10:58:00,
2013-10-30 07:03:00,31.5,30.5,30.21,WNW,290,0.0,0.0,96,0.00,,,0.00,Wunderground v.1.15,2013-10-30 11:03:00,
2013-10-30 07:09:00,31.4,30.4,30.21,WNW,290,0.0,0.0,96,0.00,,,0.00,Wunderground v.1.15,2013-10-30 11:09:00,
2013-10-30 07:14:00,31.3,30.3,30.21,WNW,290,0.0,0.0,96,0.00,,,0.00,Wunderground v.1.15,2013-10-30 11:14:00,
2013-10-30 07:19:00,31.1,30.1,30.21,WNW,289,0.0,0.0,96,0.00,,,0.00,Wunderground v.1.15,2013-10-30 11:19:00,
2013-10-30 07:25:00,31.0,30.0,30.21,WNW,290,0.0,0.0,96,0.00,,,0.00,Wunderground v.1.15,2013-10-30 11:25:00,
2013-10-30 07:30:00,31.0,30.0,30.21,WNW,290,0.0,0.0,96,0.00,,,0.00,Wunderground v.1.15,2013-10-30 11:30:00,
2013-10-30 07:35:00,31.2,30.2,30.22,WNW,290,0.0,0.0,96,0.00,,,0.00,Wunderground v.1.15,2013-10-30 11:35:00,
2013-10-30 07:40:00,31.2,30.2,30.21,WNW,290,0.0,0.0,96,0.00,,,0.00,Wunderground v.1.15,2013-10-30 11:40:00,
2013-10-30 07:45:00,31.2,30.2,30.21,WNW,290,0.0,0.0,96,0.00,,,0.00,Wunderground v.1.15,2013-10-30 11:45:00,
2013-10-30 07:50:00,31.1,30.1,30.22,WNW,290,0.0,0.0,96,0.00,,,0.00,Wunderground v.1.15,2013-10-30 11:50:00,
2013-10-30 07:55:00,30.9,29.9,30.22,WNW,289,0.0,0.0,96,0.00,,,0.00,Wunderground v.1.15,2013-10-30 11:55:00,
2013-10-30 08:00:00,30.8,29.8,30.22,WNW,290,0.0,0.0,96,0.00,,,0.00,Wunderground v.1.15,2013-10-30 12:00:00,
2013-10-30 08:06:00,30.7,29.7,30.23,WNW,289,0.0,0.0,96,0.00,,,0.00,Wunderground v.1.15,2013-10-30 12:06:00,
2013-10-30 08:11:00,30.7,29.7,30.22,WNW,289,0.0,0.0,96,0.00,,,0.00,Wunderground v.1.15,2013-10-30 12:11:00,
2013-10-30 08:16:00,30.6,29.6,30.23,WNW,290,0.0,0.0,96,0.00,,,0.00,Wunderground v.1.15,2013-10-30 12:16:00,
2013-10-30 08:21:00,30.6,29.6,30.23,WNW,289,0.0,0.0,96,0.00,,,0.00,Wunderground v.1.15,2013-10-30 12:21:00,
2013-10-30 08:26:00,30.6,29.9,30.23,WNW,290,0.0,0.0,97,0.00,,,0.00,Wunderground v.1.15,2013-10-30 12:26:00,
2013-10-30 08:31:00,30.7,30.0,30.23,WNW,290,0.0,0.0,97,0.00,,,0.00,Wunderground v.1.15,2013-10-30 12:31:00,
2013-10-30 08:36:00,30.9,30.1,30.23,WNW,290,0.0,0.0,97,0.00,,,0.00,Wunderground v.1.15,2013-10-30 12:36:00,
2013-10-30 08:41:00,31.2,30.4,30.23,WNW,289,0.0,0.0,97,0.00,,,0.00,Wunderground v.1.15,2013-10-30 12:41:00,
2013-10-30 08:47:00,31.6,30.8,30.23,WNW,289,0.0,0.0,97,0.00,,,0.00,Wunderground v.1.15,2013-10-30 12:47:00,
2013-10-30 08:53:00,31.9,31.1,30.23,WNW,290,0.0,0.0,97,0.00,,,0.00,Wunderground v.1.15,2013-10-30 12:53:00,
2013-10-30 08:58:00,32.5,31.7,30.23,WNW,289,0.0,0.0,97,0.00,,,0.00,Wunderground v.1.15,2013-10-30 12:58:00,
2013-10-30 09:03:00,32.7,31.9,30.23,WNW,290,0.0,0.0,97,0.00,,,0.00,Wunderground v.1.15,2013-10-30 13:03:00,
2013-10-30 09:08:00,33.3,32.5,30.24,WNW,290,0.0,0.0,97,0.00,,,0.00,Wunderground v.1.15,2013-10-30 13:08:00,
2013-10-30 09:13:00,33.7,32.9,30.24,WNW,290,0.0,0.0,97,0.00,,,0.00,Wunderground v.1.15,2013-10-30 13:13:00,
2013-10-30 09:18:00,33.9,33.1,30.24,WNW,290,0.0,0.0,97,0.00,,,0.00,Wunderground v.1.15,2013-10-30 13:18:00,
2013-10-30 09:23:00,34.2,33.4,30.24,WNW,290,0.0,0.0,97,0.00,,,0.00,Wunderground v.1.15,2013-10-30 13:23:00,
2013-10-30 09:29:00,34.6,33.8,30.24,WNW,289,0.0,0.0,97,0.00,,,0.00,Wunderground v.1.15,2013-10-30 13:29:00,
2013-10-30 09:34:00,34.9,34.4,30.24,WNW,289,0.0,0.0,98,0.00,,,0.00,Wunderground v.1.15,2013-10-30 13:34:00,
2013-10-30 09:39:00,35.4,34.9,30.24,WNW,289,0.0,0.0,98,0.00,,,0.00,Wunderground v.1.15,2013-10-30 13:39:00,
2013-10-30 09:44:00,35.9,35.4,30.24,SW,234,0.0,0.0,98,0.00,,,0.00,Wunderground v.1.15,2013-10-30 13:44:00,
2013-10-30 09:49:00,36.3,35.8,30.24,SW,234,0.0,0.0,98,0.00,,,0.00,Wunderground v.1.15,2013-10-30 13:49:00,
2013-10-30 09:54:00,36.8,36.3,30.24,SSE,163,0.0,0.0,98,0.00,,,0.00,Wunderground v.1.15,2013-10-30 13:54:00,
2013-10-30 09:59:00,37.6,37.1,30.25,South,177,0.0,0.0,98,0.00,,,0.00,Wunderground v.1.15,2013-10-30 13:59:00,
2013-10-30 10:04:00,38.6,38.1,30.25,South,177,0.0,0.0,98,0.00,,,0.00,Wunderground v.1.15,2013-10-30 14:04:00,
2013-10-30 10:09:00,40.1,39.3,30.24,SSE,163,0.0,0.0,97,0.00,,,0.00,Wunderground v.1.15,2013-10-30 14:09:00,
2013-10-30 10:14:00,41.5,39.9,30.24,SSE,162,0.0,0.0,94,0.00,,,0.00,Wunderground v.1.15,2013-10-30 14:14:00,
2013-10-30 10:19:00,42.6,40.2,30.24,SSE,164,0.0,0.0,91,0.00,,,0.00,Wunderground v.1.15,2013-10-30 14:19:00,
2013-10-30 10:25:00,43.5,39.9,30.24,SSE,163,0.0,0.0,87,0.00,,,0.00,Wunderground v.1.15,2013-10-30 14:25:00,
2013-10-30 10:30:00,44.6,40.4,30.24,SSE,163,0.0,0.0,85,0.00,,,0.00,Wunderground v.1.15,2013-10-30 14:30:00,
2013-10-30 10:35:00,46.1,40.6,30.24,SSE,163,0.0,0.0,81,0.00,,,0.00,Wunderground v.1.15,2013-10-30 14:35:00,
2013-10-30 10:40:00,47.1,40.6,30.24,East,84,0.0,1.0,78,0.00,,,0.00,Wunderground v.1.15,2013-10-30 14:40:00,
2013-10-30 10:45:00,48.3,41.1,30.24,East,84,0.0,0.0,76,0.00,,,0.00,Wunderground v.1.15,2013-10-30 14:45:00,
2013-10-30 10:50:00,49.2,41.3,30.24,ESE,104,0.0,0.0,74,0.00,,,0.00,Wunderground v.1.15,2013-10-30 14:50:00,
2013-10-30 10:55:00,49.6,40.2,30.24,East,97,0.0,2.0,70,0.00,,,0.00,Wunderground v.1.15,2013-10-30 14:55:00,
2013-10-30 11:00:00,50.1,40.7,30.24,East,96,1.0,2.0,70,0.00,,,0.00,Wunderground v.1.15,2013-10-30 15:00:00,
2013-10-30 11:05:00,50.7,40.9,30.24,ESE,113,1.0,2.0,69,0.00,,,0.00,Wunderground v.1.15,2013-10-30 15:05:00,
2013-10-30 11:10:00,51.3,41.1,30.23,East,88,1.0,2.0,68,0.00,,,0.00,Wunderground v.1.15,2013-10-30 15:10:00,
2013-10-30 11:15:00,51.7,41.1,30.23,East,98,1.0,1.0,67,0.00,,,0.00,Wunderground v.1.15,2013-10-30 15:15:00,
2013-10-30 11:21:00,52.2,42.0,30.23,East,80,1.0,1.0,68,0.00,,,0.00,Wunderground v.1.15,2013-10-30 15:21:00,
2013-10-30 11:26:00,52.8,42.1,30.23,ENE,74,0.0,1.0,67,0.00,,,0.00,Wunderground v.1.15,2013-10-30 15:26:00,
2013-10-30 11:31:00,53.0,42.3,30.23,NE,47,1.0,1.0,67,0.00,,,0.00,Wunderground v.1.15,2013-10-30 15:31:00,
2013-10-30 11:36:00,53.2,42.1,30.23,East,86,1.0,2.0,66,0.00,,,0.00,Wunderground v.1.15,2013-10-30 15:36:00,
2013-10-30 11:41:00,53.5,42.8,30.23,NE,53,1.0,1.0,67,0.00,,,0.00,Wunderground v.1.15,2013-10-30 15:41:00,
2013-10-30 11:46:00,54.1,43.4,30.23,East,81,1.0,1.0,67,0.00,,,0.00,Wunderground v.1.15,2013-10-30 15:46:00,
2013-10-30 11:51:00,54.6,43.5,30.23,East,79,1.0,1.0,66,0.00,,,0.00,Wunderground v.1.15,2013-10-30 15:51:00,
2013-10-30 11:56:00,55.1,43.1,30.23,ESE,109,1.0,2.0,64,0.00,,,0.00,Wunderground v.1.15,2013-10-30 15:56:00,
2013-10-30 12:02:00,55.5,42.7,30.23,ENE,57,1.0,2.0,62,0.00,,,0.00,Wunderground v.1.15,2013-10-30 16:02:00,
2013-10-30 12:07:00,56.0,43.2,30.22,NE,39,1.0,2.0,62,0.00,,,0.00,Wunderground v.1.15,2013-10-30 16:07:00,
2013-10-30 12:12:00,56.4,42.7,30.22,ENE,78,1.0,1.0,60,0.00,,,0.00,Wunderground v.1.15,2013-10-30 16:12:00,
2013-10-30 12:18:00,56.6,41.1,30.22,NNW,333,1.0,2.0,56,0.00,,,0.00,Wunderground v.1.15,2013-10-30 16:18:00,
2013-10-30 12:23:00,56.7,42.1,30.22,ENE,70,1.0,2.0,58,0.00,,,0.00,Wunderground v.1.15,2013-10-30 16:23:00,
2013-10-30 12:28:00,57.0,41.9,30.21,East,84,1.0,2.0,57,0.00,,,0.00,Wunderground v.1.15,2013-10-30 16:28:00,
2013-10-30 12:34:00,57.2,41.6,30.21,ESE,110,1.0,1.0,56,0.00,,,0.00,Wunderground v.1.15,2013-10-30 16:34:00,
2013-10-30 12:39:00,57.5,41.9,30.20,East,90,1.0,2.0,56,0.00,,,0.00,Wunderground v.1.15,2013-10-30 16:39:00,
2013-10-30 12:44:00,57.8,41.7,30.20,ESE,116,0.0,1.0,55,0.00,,,0.00,Wunderground v.1.15,2013-10-30 16:44:00,
2013-10-30 12:49:00,57.8,41.3,30.19,SSE,159,1.0,3.0,54,0.00,,,0.00,Wunderground v.1.15,2013-10-30 16:49:00,
2013-10-30 12:54:00,57.8,41.7,30.19,SE,141,2.0,2.0,55,0.00,,,0.00,Wunderground v.1.15,2013-10-30 16:54:00,
2013-10-30 12:59:00,58.0,41.9,30.18,ESE,107,0.0,2.0,55,0.00,,,0.00,Wunderground v.1.15,2013-10-30 16:59:00,
2013-10-30 13:04:00,58.1,41.5,30.18,East,91,1.0,4.0,54,0.00,,,0.00,Wunderground v.1.15,2013-10-30 17:04:00,
2013-10-30 13:09:00,58.2,42.1,30.18,NE,53,1.0,4.0,55,0.00,,,0.00,Wunderground v.1.15,2013-10-30 17:09:00,
2013-10-30 13:14:00,58.3,41.2,30.17,ENE,59,1.0,2.0,53,0.00,,,0.00,Wunderground v.1.15,2013-10-30 17:14:00,
2013-10-30 13:19:00,58.2,41.6,30.17,ESE,117,1.0,3.0,54,0.00,,,0.00,Wunderground v.1.15,2013-10-30 17:19:00,
2013-10-30 13:24:00,58.5,41.4,30.17,SW,233,1.0,3.0,53,0.00,,,0.00,Wunderground v.1.15,2013-10-30 17:24:00,
2013-10-30 13:30:00,58.6,41.0,30.16,East,97,1.0,1.0,52,0.00,,,0.00,Wunderground v.1.15,2013-10-30 17:30:00,
2013-10-30 13:35:00,59.1,42.5,30.16,ESE,120,1.0,1.0,54,0.00,,,0.00,Wunderground v.1.15,2013-10-30 17:35:00,
2013-10-30 13:40:00,59.5,41.9,30.16,SW,235,1.0,3.0,52,0.00,,,0.00,Wunderground v.1.15,2013-10-30 17:40:00,
2013-10-30 13:45:00,59.7,42.5,30.15,NW,312,1.0,3.0,53,0.00,,,0.00,Wunderground v.1.15,2013-10-30 17:45:00,
2013-10-30 13:50:00,59.8,42.1,30.15,SSW,211,1.0,1.0,52,0.00,,,0.00,Wunderground v.1.15,2013-10-30 17:50:00,
2013-10-30 13:55:00,59.8,42.1,30.15,ESE,102,2.0,5.0,52,0.00,,,0.00,Wunderground v.1.15,2013-10-30 17:55:00,
2013-10-30 14:00:00,60.0,41.8,30.15,East,86,2.0,4.0,51,0.00,,,0.00,Wunderground v.1.15,2013-10-30 18:00:00,
2013-10-30 14:05:00,60.0,41.3,30.15,East,98,2.0,4.0,50,0.00,,,0.00,Wunderground v.1.15,2013-10-30 18:05:00,
2013-10-30 14:10:00,60.3,41.6,30.14,North,11,2.0,2.0,50,0.00,,,0.00,Wunderground v.1.15,2013-10-30 18:10:00,
2013-10-30 14:15:00,60.8,42.0,30.14,ESE,121,1.0,2.0,50,0.00,,,0.00,Wunderground v.1.15,2013-10-30 18:15:00,
2013-10-30 14:20:00,61.2,41.9,30.14,NE,49,1.0,1.0,49,0.00,,,0.00,Wunderground v.1.15,2013-10-30 18:20:00,
2013-10-30 14:25:00,61.2,40.8,30.14,SW,235,1.0,4.0,47,0.00,,,0.00,Wunderground v.1.15,2013-10-30 18:25:00,
2013-10-30 14:30:00,61.4,41.5,30.14,East,86,1.0,1.0,48,0.00,,,0.00,Wunderground v.1.15,2013-10-30 18:30:00,
2013-10-30 14:36:00,61.6,42.2,30.14,ENE,67,1.0,1.0,49,0.00,,,0.00,Wunderground v.1.15,2013-10-30 18:36:00,
2013-10-30 14:41:00,61.5,41.1,30.14,ENE,70,1.0,1.0,47,0.00,,,0.00,Wunderground v.1.15,2013-10-30 18:41:00,
2013-10-30 14:47:00,61.9,42.0,30.13,SSW,197,1.0,1.0,48,0.00,,,0.00,Wunderground v.1.15,2013-10-30 18:47:00,
2013-10-30 14:53:00,62.2,41.7,30.13,SW,218,0.0,1.0,47,0.00,,,0.00,Wunderground v.1.15,2013-10-30 18:53:00,
2013-10-30 14:58:00,62.4,41.3,30.13,East,90,1.0,2.0,46,0.00,,,0.00,Wunderground v.1.15,2013-10-30 18:58:00,
2013-10-30 15:03:00,62.2,41.2,30.13,East,89,1.0,2.0,46,0.00,,,0.00,Wunderground v.1.15,2013-10-30 19:03:00,
2013-10-30 15:09:00,62.5,40.9,30.13,SW,232,1.0,2.0,45,0.00,,,0.00,Wunderground v.1.15,2013-10-30 19:09:00,
2013-10-30 15:14:00,62.8,40.5,30.13,SW,215,1.0,2.0,44,0.00,,,0.00,Wunderground v.1.15,2013-10-30 19:14:00,
2013-10-30 15:19:00,63.0,40.7,30.12,SSE,150,1.0,2.0,44,0.00,,,0.00,Wunderground v.1.15,2013-10-30 19:19:00,
2013-10-30 15:24:00,63.2,40.3,30.12,SW,232,1.0,2.0,43,0.00,,,0.00,Wunderground v.1.15,2013-10-30 19:24:00,
2013-10-30 15:29:00,63.2,40.3,30.12,SW,228,1.0,2.0,43,0.00,,,0.00,Wunderground v.1.15,2013-10-30 19:29:00,
2013-10-30 15:35:00,63.5,42.3,30.12,SW,229,0.0,1.0,46,0.00,,,0.00,Wunderground v.1.15,2013-10-30 19:35:00,
2013-10-30 15:40:00,63.7,40.2,30.12,SW,225,0.0,2.0,42,0.00,,,0.00,Wunderground v.1.15,2013-10-30 19:40:00,
2013-10-30 15:45:00,63.5,40.6,30.11,SW,229,1.0,2.0,43,0.00,,,0.00,Wunderground v.1.15,2013-10-30 19:45:00,
2013-10-30 15:50:00,63.6,41.3,30.11,SW,229,1.0,4.0,44,0.00,,,0.00,Wunderground v.1.15,2013-10-30 19:50:00,
2013-10-30 15:55:00,63.5,41.8,30.11,ESE,117,1.0,4.0,45,0.00,,,0.00,Wunderground v.1.15,2013-10-30 19:55:00,
2013-10-30 16:00:00,63.4,41.1,30.11,SSE,150,0.0,4.0,44,0.00,,,0.00,Wunderground v.1.15,2013-10-30 20:00:00,
2013-10-30 16:06:00,63.1,40.2,30.11,East,98,0.0,4.0,43,0.00,,,0.00,Wunderground v.1.15,2013-10-30 20:06:00,
2013-10-30 16:11:00,62.9,41.2,30.11,ESE,106,0.0,4.0,45,0.00,,,0.00,Wunderground v.1.15,2013-10-30 20:11:00,
2013-10-30 16:16:00,63.4,41.7,30.11,SW,225,0.0,4.0,45,0.00,,,0.00,Wunderground v.1.15,2013-10-30 20:16:00,
2013-10-30 16:21:00,63.5,41.2,30.11,East,87,1.0,4.0,44,0.00,,,0.00,Wunderground v.1.15,2013-10-30 20:21:00,
2013-10-30 16:26:00,63.3,40.4,30.11,SW,236,1.0,4.0,43,0.00,,,0.00,Wunderground v.1.15,2013-10-30 20:26:00,
2013-10-30 16:32:00,63.2,40.9,30.11,SW,225,0.0,4.0,44,0.00,,,0.00,Wunderground v.1.15,2013-10-30 20:32:00,
2013-10-30 16:37:00,63.0,41.3,30.11,ESE,108,0.0,4.0,45,0.00,,,0.00,Wunderground v.1.15,2013-10-30 20:37:00,
2013-10-30 16:42:00,62.4,39.6,30.11,East,98,1.0,4.0,43,0.00,,,0.00,Wunderground v.1.15,2013-10-30 20:42:00,
2013-10-30 16:48:00,62.3,40.7,30.11,WNW,297,1.0,4.0,45,0.00,,,0.00,Wunderground v.1.15,2013-10-30 20:48:00,
2013-10-30 16:53:00,62.3,39.5,30.12,West,277,1.0,4.0,43,0.00,,,0.00,Wunderground v.1.15,2013-10-30 20:53:00,
2013-10-30 16:58:00,62.4,39.6,30.12,SW,219,1.0,4.0,43,0.00,,,0.00,Wunderground v.1.15,2013-10-30 20:58:00,
2013-10-30 17:03:00,62.3,40.1,30.12,WNW,302,0.0,4.0,44,0.00,,,0.00,Wunderground v.1.15,2013-10-30 21:03:00,
2013-10-30 17:09:00,62.1,39.9,30.12,SW,235,0.0,4.0,44,0.00,,,0.00,Wunderground v.1.15,2013-10-30 21:09:00,
2013-10-30 17:14:00,62.0,40.4,30.12,East,100,0.0,4.0,45,0.00,,,0.00,Wunderground v.1.15,2013-10-30 21:14:00,
2013-10-30 17:19:00,61.8,40.2,30.12,SW,229,0.0,4.0,45,0.00,,,0.00,Wunderground v.1.15,2013-10-30 21:19:00,
2013-10-30 17:24:00,61.1,42.3,30.12,West,271,1.0,4.0,50,0.00,,,0.00,Wunderground v.1.15,2013-10-30 21:24:00,
2013-10-30 17:29:00,60.0,42.8,30.12,West,264,2.0,4.0,53,0.00,,,0.00,Wunderground v.1.15,2013-10-30 21:29:00,
2013-10-30 17:34:00,59.0,42.4,30.12,NNW,347,2.0,4.0,54,0.00,,,0.00,Wunderground v.1.15,2013-10-30 21:34:00,
2013-10-30 17:40:00,58.4,42.3,30.12,NW,319,2.0,2.0,55,0.00,,,0.00,Wunderground v.1.15,2013-10-30 21:40:00,
2013-10-30 17:45:00,57.8,42.7,30.12,NW,310,1.0,4.0,57,0.00,,,0.00,Wunderground v.1.15,2013-10-30 21:45:00,
2013-10-30 17:50:00,57.0,42.4,30.12,WNW,283,1.0,4.0,58,0.00,,,0.00,Wunderground v.1.15,2013-10-30 21:50:00,
2013-10-30 17:56:00,56.5,42.3,30.12,WNW,286,1.0,4.0,59,0.00,,,0.00,Wunderground v.1.15,2013-10-30 21:56:00,
2013-10-30 18:01:00,55.8,43.0,30.12,WNW,287,1.0,4.0,62,0.00,,,0.00,Wunderground v.1.15,2013-10-30 22:01:00,
2013-10-30 18:06:00,55.2,42.4,30.11,WNW,293,0.0,4.0,62,0.00,,,0.00,Wunderground v.1.15,2013-10-30 22:06:00,
2013-10-30 18:12:00,54.8,42.4,30.11,West,280,0.0,1.0,63,0.00,,,0.00,Wunderground v.1.15,2013-10-30 22:12:00,
2013-10-30 18:17:00,54.3,42.4,30.11,West,279,0.0,1.0,64,0.00,,,0.00,Wunderground v.1.15,2013-10-30 22:17:00,
2013-10-30 18:23:00,53.6,42.1,30.12,West,270,0.0,1.0,65,0.00,,,0.00,Wunderground v.1.15,2013-10-30 22:23:00,
2013-10-30 18:28:00,53.4,41.9,30.12,West,270,0.0,1.0,65,0.00,,,0.00,Wunderground v.1.15,2013-10-30 22:28:00,
2013-10-30 18:33:00,52.8,42.1,30.12,West,269,0.0,1.0,67,0.00,,,0.00,Wunderground v.1.15,2013-10-30 22:33:00,
2013-10-30 18:38:00,52.5,41.9,30.12,West,273,0.0,1.0,67,0.00,,,0.00,Wunderground v.1.15,2013-10-30 22:38:00,
2013-10-30 18:44:00,52.0,41.8,30.12,West,272,0.0,0.0,68,0.00,,,0.00,Wunderground v.1.15,2013-10-30 22:44:00,
2013-10-30 18:49:00,51.6,41.8,30.12,West,273,0.0,0.0,69,0.00,,,0.00,Wunderground v.1.15,2013-10-30 22:49:00,
2013-10-30 18:54:00,51.1,41.7,30.13,West,273,0.0,0.0,70,0.00,,,0.00,Wunderground v.1.15,2013-10-30 22:54:00,
2013-10-30 18:59:00,50.7,41.6,30.13,West,273,0.0,0.0,71,0.00,,,0.00,Wunderground v.1.15,2013-10-30 22:59:00,
2013-10-30 19:05:00,50.2,41.5,30.13,West,272,0.0,3.0,72,0.00,,,0.00,Wunderground v.1.15,2013-10-30 23:05:00,
2013-10-30 19:10:00,49.7,41.4,30.13,West,272,0.0,3.0,73,0.00,,,0.00,Wunderground v.1.15,2013-10-30 23:10:00,
2013-10-30 19:15:00,49.3,41.4,30.13,West,273,0.0,3.0,74,0.00,,,0.00,Wunderground v.1.15,2013-10-30 23:15:00,
2013-10-30 19:21:00,48.8,41.2,30.13,West,272,0.0,3.0,75,0.00,,,0.00,Wunderground v.1.15,2013-10-30 23:21:00,
2013-10-30 19:26:00,48.3,41.4,30.14,West,272,0.0,3.0,77,0.00,,,0.00,Wunderground v.1.15,2013-10-30 23:26:00,
2013-10-30 19:31:00,47.8,40.9,30.14,West,273,0.0,3.0,77,0.00,,,0.00,Wunderground v.1.15,2013-10-30 23:31:00,
2013-10-30 19:37:00,47.4,40.6,30.14,West,273,0.0,3.0,77,0.00,,,0.00,Wunderground v.1.15,2013-10-30 23:37:00,
2013-10-30 19:42:00,46.9,40.7,30.14,West,273,0.0,3.0,79,0.00,,,0.00,Wunderground v.1.15,2013-10-30 23:42:00,
2013-10-30 19:47:00,46.6,40.8,30.14,West,272,0.0,3.0,80,0.00,,,0.00,Wunderground v.1.15,2013-10-30 23:47:00,
2013-10-30 19:53:00,46.1,40.6,30.14,West,273,0.0,3.0,81,0.00,,,0.00,Wunderground v.1.15,2013-10-30 23:53:00,
2013-10-30 19:58:00,45.8,40.9,30.14,West,272,0.0,3.0,83,0.00,,,0.00,Wunderground v.1.15,2013-10-30 23:58:00,
2013-10-30 20:04:00,45.5,40.9,30.14,West,272,0.0,3.0,84,0.00,,,0.00,Wunderground v.1.15,2013-10-31 00:04:00,
2013-10-30 20:09:00,45.1,40.6,30.14,West,272,0.0,3.0,84,0.00,,,0.00,Wunderground v.1.15,2013-10-31 00:09:00,
2013-10-30 20:14:00,44.7,40.2,30.14,West,272,0.0,3.0,84,0.00,,,0.00,Wunderground v.1.15,2013-10-31 00:14:00,
2013-10-30 20:20:00,44.3,40.1,30.14,West,272,0.0,3.0,85,0.00,,,0.00,Wunderground v.1.15,2013-10-31 00:20:00,
2013-10-30 20:25:00,44.1,40.2,30.13,West,273,0.0,3.0,86,0.00,,,0.00,Wunderground v.1.15,2013-10-31 00:25:00,
2013-10-30 20:30:00,43.8,40.2,30.13,West,273,0.0,3.0,87,0.00,,,0.00,Wunderground v.1.15,2013-10-31 00:30:00,
2013-10-30 20:35:00,43.5,39.9,30.13,West,272,0.0,3.0,87,0.00,,,0.00,Wunderground v.1.15,2013-10-31 00:35:00,
2013-10-30 20:41:00,43.2,39.6,30.13,West,272,0.0,3.0,87,0.00,,,0.00,Wunderground v.1.15,2013-10-31 00:41:00,
2013-10-30 20:46:00,42.9,39.6,30.13,West,272,0.0,3.0,88,0.00,,,0.00,Wunderground v.1.15,2013-10-31 00:46:00,
2013-10-30 20:52:00,42.6,39.3,30.13,West,273,0.0,3.0,88,0.00,,,0.00,Wunderground v.1.15,2013-10-31 00:52:00,
2013-10-30 20:57:00,42.4,39.4,30.12,West,272,0.0,3.0,89,0.00,,,0.00,Wunderground v.1.15,2013-10-31 00:57:00,
2013-10-30 21:02:00,42.2,39.2,30.13,West,272,0.0,3.0,89,0.00,,,0.00,Wunderground v.1.15,2013-10-31 01:02:00,
2013-10-30 21:08:00,42.0,39.0,30.12,West,273,0.0,3.0,89,0.00,,,0.00,Wunderground v.1.15,2013-10-31 01:08:00,
2013-10-30 21:13:00,41.8,39.1,30.12,West,272,0.0,3.0,90,0.00,,,0.00,Wunderground v.1.15,2013-10-31 01:13:00,
2013-10-30 21:18:00,41.7,39.0,30.12,West,272,0.0,3.0,90,0.00,,,0.00,Wunderground v.1.15,2013-10-31 01:18:00,
2013-10-30 21:24:00,41.4,38.7,30.12,West,272,0.0,3.0,90,0.00,,,0.00,Wunderground v.1.15,2013-10-31 01:24:00,
2013-10-30 21:29:00,41.3,38.9,30.12,West,273,0.0,3.0,91,0.00,,,0.00,Wunderground v.1.15,2013-10-31 01:29:00,
2013-10-30 21:34:00,41.1,38.7,30.13,West,272,0.0,3.0,91,0.00,,,0.00,Wunderground v.1.15,2013-10-31 01:34:00,
2013-10-30 21:40:00,41.0,38.6,30.13,West,272,0.0,3.0,91,0.00,,,0.00,Wunderground v.1.15,2013-10-31 01:40:00,
2013-10-30 21:45:00,40.9,38.5,30.13,West,272,0.0,3.0,91,0.00,,,0.00,Wunderground v.1.15,2013-10-31 01:45:00,
2013-10-30 21:50:00,40.9,38.8,30.13,West,272,0.0,3.0,92,0.00,,,0.00,Wunderground v.1.15,2013-10-31 01:50:00,
2013-10-30 21:56:00,40.9,38.8,30.13,West,273,0.0,3.0,92,0.00,,,0.00,Wunderground v.1.15,2013-10-31 01:56:00,
2013-10-30 22:01:00,40.8,38.7,30.13,West,273,0.0,3.0,92,0.00,,,0.00,Wunderground v.1.15,2013-10-31 02:01:00,
2013-10-30 22:06:00,40.6,38.5,30.13,West,272,0.0,3.0,92,0.00,,,0.00,Wunderground v.1.15,2013-10-31 02:06:00,
2013-10-30 22:11:00,40.6,38.5,30.13,West,273,0.0,3.0,92,0.00,,,0.00,Wunderground v.1.15,2013-10-31 02:11:00,
2013-10-30 22:17:00,40.6,38.7,30.13,West,272,0.0,3.0,93,0.00,,,0.00,Wunderground v.1.15,2013-10-31 02:17:00,
2013-10-30 22:22:00,40.5,38.6,30.13,West,272,0.0,3.0,93,0.00,,,0.00,Wunderground v.1.15,2013-10-31 02:22:00,
2013-10-30 22:27:00,40.5,38.6,30.13,West,272,0.0,3.0,93,0.00,,,0.00,Wunderground v.1.15,2013-10-31 02:27:00,
2013-10-30 22:33:00,40.6,38.7,30.13,West,272,0.0,3.0,93,0.00,,,0.00,Wunderground v.1.15,2013-10-31 02:33:00,
2013-10-30 22:38:00,40.7,38.8,30.13,West,271,0.0,3.0,93,0.00,,,0.00,Wunderground v.1.15,2013-10-31 02:38:00,
2013-10-30 22:43:00,40.6,38.7,30.12,West,271,0.0,3.0,93,0.00,,,0.00,Wunderground v.1.15,2013-10-31 02:43:00,
2013-10-30 22:49:00,40.5,38.6,30.12,West,271,0.0,3.0,93,0.00,,,0.00,Wunderground v.1.15,2013-10-31 02:49:00,
2013-10-30 22:54:00,40.4,38.5,30.12,West,271,0.0,3.0,93,0.00,,,0.00,Wunderground v.1.15,2013-10-31 02:54:00,
2013-10-30 22:59:00,40.2,38.3,30.12,West,271,0.0,3.0,93,0.00,,,0.00,Wunderground v.1.15,2013-10-31 02:59:00,
2013-10-30 23:03:00,40.0,38.1,30.12,West,271,0.0,3.0,93,0.00,,,0.00,Wunderground v.1.15,2013-10-31 03:03:00,
2013-10-30 23:08:00,39.9,38.0,30.12,West,271,0.0,3.0,93,0.00,,,0.00,Wunderground v.1.15,2013-10-31 03:08:00,
2013-10-30 23:14:00,39.7,38.1,30.12,West,271,0.0,3.0,94,0.00,,,0.00,Wunderground v.1.15,2013-10-31 03:14:00,
2013-10-30 23:19:00,39.6,38.0,30.11,West,271,0.0,3.0,94,0.00,,,0.00,Wunderground v.1.15,2013-10-31 03:19:00,
2013-10-30 23:24:00,39.5,37.9,30.11,West,271,0.0,3.0,94,0.00,,,0.00,Wunderground v.1.15,2013-10-31 03:24:00,
2013-10-30 23:29:00,39.6,38.0,30.10,West,271,0.0,3.0,94,0.00,,,0.00,Wunderground v.1.15,2013-10-31 03:29:00,
2013-10-30 23:35:00,39.8,38.5,30.10,West,271,0.0,3.0,95,0.00,,,0.00,Wunderground v.1.15,2013-10-31 03:35:00,
2013-10-30 23:40:00,40.2,38.9,30.09,West,271,0.0,3.0,95,0.00,,,0.00,Wunderground v.1.15,2013-10-31 03:40:00,
2013-10-30 23:45:00,40.6,39.3,30.08,West,271,0.0,3.0,95,0.00,,,0.00,Wunderground v.1.15,2013-10-31 03:45:00,
2013-10-30 23:51:00,40.9,39.6,30.08,West,271,0.0,3.0,95,0.00,,,0.00,Wunderground v.1.15,2013-10-31 03:51:00,
2013-10-30 23:56:00,41.1,39.8,30.08,West,271,0.0,3.0,95,0.00,,,0.00,Wunderground v.1.15,2013-10-31 03:56:00,